Time;durP1;ratioP1;P1;durP2;ratioP2;P2;SDS_P1;SDS_P2;PMS_P1;PMS_P2;Temp;Humidity;BMP_temperature;BMP_pressure;BME280_temperature;BME280_humidity;BME280_pressure;Samples;Min_cycle;Max_cycle;Signal;HPM_P1;HPM_P2
2022/11/27 00:01:18;;;;;;;22.48;11.38;;;0.80;70.00;;;;;;5104143;27;46945;-69
2022/11/27 00:03:43;;;;;;;62.53;11.30;;;0.90;70.10;;;;;;5103752;27;46514;-68
2022/11/27 00:06:14;;;;;;;27.40;10.87;;;0.90;70.10;;;;;;5105017;27;46392;-69
2022/11/27 00:08:41;;;;;;;41.67;11.68;;;0.90;70.10;;;;;;5102732;27;46333;-71
2022/11/27 00:11:09;;;;;;;49.25;11.77;;;1.00;70.20;;;;;;5106369;27;46364;-70
2022/11/27 00:13:36;;;;;;;78.53;12.50;;;1.00;70.20;;;;;;5107576;27;46355;-69
2022/11/27 00:16:03;;;;;;;36.53;10.55;;;0.90;70.10;;;;;;5108448;27;46504;-68
2022/11/27 00:18:28;;;;;;;131.40;12.85;;;1.00;70.30;;;;;;5104893;27;46269;-71
2022/11/27 00:20:54;;;;;;;92.50;13.13;;;1.00;70.20;;;;;;5107148;27;46477;-69
2022/11/27 00:23:20;;;;;;;83.57;12.80;;;1.10;70.30;;;;;;5109909;27;46643;-72
2022/11/27 00:25:50;;;;;;;173.83;15.43;;;1.00;70.20;;;;;;5106233;27;47529;-69
2022/11/27 00:28:16;;;;;;;97.13;13.75;;;1.00;70.20;;;;;;5109740;27;46456;-69
2022/11/27 00:30:41;;;;;;;112.70;14.10;;;1.10;70.30;;;;;;5108997;27;46497;-69
2022/11/27 00:33:07;;;;;;;83.83;15.23;;;1.00;70.20;;;;;;5109364;27;46455;-71
2022/11/27 00:35:32;;;;;;;29.83;9.90;;;0.90;70.10;;;;;;5108513;27;46714;-70
2022/11/27 00:37:58;;;;;;;36.83;9.40;;;0.80;70.10;;;;;;5108050;27;45897;-70
2022/11/27 00:40:23;;;;;;;30.43;9.57;;;0.80;70.10;;;;;;5109933;27;46468;-69
2022/11/27 00:42:49;;;;;;;31.40;9.60;;;0.70;70.10;;;;;;5108608;27;46748;-69
2022/11/27 00:45:15;;;;;;;26.80;8.80;;;0.60;70.50;;;;;;5107215;27;46419;-71
2022/11/27 00:47:40;;;;;;;25.13;8.13;;;0.50;70.50;;;;;;5107361;27;46683;-69
2022/11/27 00:50:06;;;;;;;36.47;7.93;;;0.40;70.60;;;;;;5109529;27;46435;-69
2022/11/27 00:52:32;;;;;;;23.60;8.75;;;0.40;70.90;;;;;;5110437;27;46403;-70
2022/11/27 00:54:58;;;;;;;49.27;8.67;;;0.30;71.00;;;;;;5108008;27;47717;-69
2022/11/27 00:57:24;;;;;;;15.30;8.40;;;0.20;71.20;;;;;;5106384;27;46331;-69
2022/11/27 00:59:53;;;;;;;14.60;7.32;;;0.20;71.40;;;;;;5111019;27;46710;-68
2022/11/27 01:02:19;;;;;;;28.92;8.38;;;0.20;71.40;;;;;;5107196;27;46654;-69
2022/11/27 01:04:46;;;;;;;47.97;10.27;;;0.20;71.30;;;;;;5107683;27;46541;-70
2022/11/27 01:07:11;;;;;;;29.50;7.50;;;0.20;71.30;;;;;;5108478;27;46375;-71
2022/11/27 01:09:37;;;;;;;29.60;8.37;;;0.20;71.20;;;;;;5108116;27;46541;-70
2022/11/27 01:12:03;;;;;;;20.33;8.80;;;0.20;71.10;;;;;;5110329;27;46278;-71
2022/11/27 01:14:29;;;;;;;15.70;8.53;;;0.20;71.10;;;;;;5107448;27;47153;-70
2022/11/27 01:16:54;;;;;;;13.07;7.53;;;0.10;71.30;;;;;;5107210;27;46611;-69
2022/11/27 01:19:20;;;;;;;23.10;8.13;;;0.10;71.40;;;;;;5107574;27;46397;-72
2022/11/27 01:21:46;;;;;;;11.97;7.03;;;0.10;71.40;;;;;;5106002;27;46463;-68
2022/11/27 01:24:13;;;;;;;14.10;7.33;;;0.10;71.10;;;;;;5108371;27;46427;-70
2022/11/27 01:26:39;;;;;;;16.80;7.57;;;0.10;71.10;;;;;;5110239;27;46738;-71
2022/11/27 01:29:05;;;;;;;24.60;7.50;;;0.10;71.00;;;;;;5110373;27;46160;-71
2022/11/27 01:31:32;;;;;;;17.30;7.50;;;0.10;71.20;;;;;;5108969;27;46838;-71
2022/11/27 01:34:01;;;;;;;17.83;6.78;;;0.10;71.30;;;;;;5106901;27;46736;-71
2022/11/27 01:36:27;;;;;;;12.70;7.18;;;0.00;71.20;;;;;;5109042;27;45906;-70
2022/11/27 01:38:53;;;;;;;20.13;6.90;;;0.00;71.40;;;;;;5108448;27;45920;-70
2022/11/27 01:41:20;;;;;;;19.07;7.93;;;-0.10;71.40;;;;;;5108043;27;46626;-69
2022/11/27 01:43:50;;;;;;;20.30;7.00;;;-0.10;71.30;;;;;;5104544;27;46684;-71
2022/11/27 01:46:45;;;;;;;17.80;6.03;;;-0.10;71.30;;;;;;5140787;27;46391;-71
2022/11/27 01:49:11;;;;;;;10.15;6.30;;;-0.10;71.30;;;;;;5106414;27;46492;-69
2022/11/27 01:51:42;;;;;;;20.93;6.13;;;-0.10;71.30;;;;;;5126015;27;46468;-71
2022/11/27 01:54:09;;;;;;;11.73;5.10;;;0.00;71.30;;;;;;5104258;27;48013;-69
2022/11/27 01:56:35;;;;;;;17.63;6.05;;;0.20;71.30;;;;;;5108774;27;46343;-69
2022/11/27 01:59:02;;;;;;;16.52;5.95;;;0.00;71.10;;;;;;5109653;27;46495;-70
2022/11/27 02:01:28;;;;;;;11.75;5.50;;;-0.10;70.90;;;;;;5109557;27;46021;-71
2022/11/27 02:03:57;;;;;;;8.33;5.60;;;-0.10;70.80;;;;;;5106471;27;46364;-69
2022/11/27 02:06:24;;;;;;;8.43;5.78;;;-0.10;70.90;;;;;;5111786;27;46610;-69
2022/11/27 02:08:50;;;;;;;8.40;5.70;;;-0.10;71.00;;;;;;5108329;27;46720;-69
2022/11/27 02:11:33;;;;;;;11.30;6.15;;;-0.10;71.00;;;;;;5106856;27;46480;-69
2022/11/27 02:14:17;;;;;;;10.30;5.85;;;-0.20;72.20;;;;;;5105674;27;46472;-70
2022/11/27 02:16:58;;;;;;;12.98;6.03;;;-0.20;71.20;;;;;;5104141;27;46308;-70
2022/11/27 02:19:48;;;;;;;9.13;5.97;;;-0.30;71.10;;;;;;5106294;27;46464;-69
2022/11/27 02:22:31;;;;;;;10.30;5.85;;;-0.30;71.20;;;;;;5106840;27;46355;-70
2022/11/27 02:25:19;;;;;;;10.90;6.57;;;-0.40;71.30;;;;;;5139651;27;47822;-70
2022/11/27 02:27:51;;;;;;;9.07;5.80;;;-0.40;71.30;;;;;;5108208;27;46365;-69
2022/11/27 02:30:16;;;;;;;8.30;5.10;;;-0.40;71.20;;;;;;5108347;27;45759;-69
2022/11/27 02:32:58;;;;;;;9.20;5.40;;;-0.50;71.00;;;;;;5111212;27;46470;-69
2022/11/27 02:35:33;;;;;;;7.68;5.70;;;-0.50;71.00;;;;;;5105485;27;46453;-71
2022/11/27 02:38:00;;;;;;;7.35;5.28;;;-0.50;71.00;;;;;;5105150;27;46818;-69
2022/11/27 02:40:30;;;;;;;7.82;5.22;;;-0.60;71.00;;;;;;5105835;27;46356;-69
2022/11/27 02:43:10;;;;;;;9.48;5.53;;;-0.60;71.10;;;;;;5107241;27;46492;-69
2022/11/27 02:45:40;;;;;;;9.32;5.38;;;-0.60;70.10;;;;;;5106985;27;47206;-69
2022/11/27 02:48:08;;;;;;;11.00;5.78;;;-0.60;71.20;;;;;;5104322;27;46325;-70
2022/11/27 02:50:36;;;;;;;8.63;6.22;;;-0.80;70.80;;;;;;5106036;27;46474;-71
2022/11/27 02:53:06;;;;;;;10.70;6.20;;;-0.50;71.00;;;;;;5107798;27;46443;-69
2022/11/27 02:55:35;;;;;;;10.20;6.00;;;-0.50;70.90;;;;;;5101493;27;48081;-70
2022/11/27 02:58:04;;;;;;;9.95;6.07;;;-0.40;71.00;;;;;;5107158;27;46892;-69
2022/11/27 03:00:31;;;;;;;9.13;5.88;;;-0.40;70.80;;;;;;5106147;27;46447;-69
2022/11/27 03:03:02;;;;;;;9.52;5.60;;;-0.40;70.80;;;;;;5106621;27;46641;-69
2022/11/27 03:05:33;;;;;;;8.90;5.32;;;-0.40;70.90;;;;;;5101971;27;46644;-71
2022/11/27 03:08:29;;;;;;;7.68;5.22;;;-0.40;71.00;;;;;;5104811;27;46671;-70
2022/11/27 03:11:07;;;;;;;10.82;6.10;;;-0.30;70.90;;;;;;5119985;27;46439;-70
2022/11/27 03:13:37;;;;;;;11.43;6.00;;;-0.30;70.80;;;;;;5105063;27;46406;-71
2022/11/27 03:16:26;;;;;;;11.52;6.75;;;-0.20;70.70;;;;;;5104025;27;47216;-71
2022/11/27 03:19:02;;;;;;;10.00;6.15;;;-0.10;70.60;;;;;;5106174;27;46281;-68
2022/11/27 03:21:38;;;;;;;9.00;5.47;;;-0.10;70.40;;;;;;5106305;27;46138;-71
2022/11/27 03:24:05;;;;;;;9.40;5.80;;;0.00;70.10;;;;;;5137691;27;46476;-70
2022/11/27 03:26:31;;;;;;;9.48;5.78;;;0.00;70.10;;;;;;5100570;27;49453;-70
2022/11/27 03:28:59;;;;;;;10.23;6.50;;;0.00;70.10;;;;;;5104242;27;46496;-70
2022/11/27 03:31:26;;;;;;;7.90;4.88;;;-0.10;70.20;;;;;;5105897;27;46426;-70
2022/11/27 03:33:52;;;;;;;15.65;6.05;;;0.00;70.20;;;;;;5102466;27;46501;-69
2022/11/27 03:36:20;;;;;;;10.77;6.28;;;0.00;70.20;;;;;;5137285;27;48082;-70
2022/11/27 03:38:47;;;;;;;13.02;7.10;;;0.00;70.20;;;;;;5104485;27;46749;-70
2022/11/27 03:41:37;;;;;;;13.10;7.13;;;0.10;70.00;;;;;;5108355;27;46589;-70
2022/11/27 03:44:14;;;;;;;12.65;6.55;;;0.20;69.50;;;;;;5104291;27;46435;-70
2022/11/27 03:47:08;;;;;;;9.40;5.90;;;0.30;68.60;;;;;;5107532;27;47583;-70
2022/11/27 03:49:58;;;;;;;13.30;6.97;;;0.30;69.70;;;;;;5103161;27;46761;-71
2022/11/27 03:52:51;;;;;;;28.85;6.10;;;0.40;69.70;;;;;;5110116;27;46452;-68
2022/11/27 03:55:45;;;;;;;14.40;6.13;;;0.50;68.80;;;;;;5107313;27;46564;-69
2022/11/27 03:58:19;;;;;;;9.38;6.28;;;0.50;69.90;;;;;;5109182;27;47503;-71
2022/11/27 04:00:48;;;;;;;14.35;7.13;;;0.60;69.90;;;;;;5111497;27;46494;-69
2022/11/27 04:03:27;;;;;;;10.30;6.20;;;0.70;70.00;;;;;;5109090;27;46423;-71
2022/11/27 04:05:53;;;;;;;9.02;5.78;;;0.70;69.90;;;;;;5109966;27;46352;-69
2022/11/27 04:08:19;;;;;;;9.53;5.73;;;0.60;69.90;;;;;;5111910;27;46304;-69
2022/11/27 04:10:44;;;;;;;11.07;5.72;;;0.70;69.90;;;;;;5106973;27;46414;-70
2022/11/27 04:13:10;;;;;;;25.63;5.80;;;0.60;69.90;;;;;;5110212;27;46426;-71
2022/11/27 04:15:36;;;;;;;13.87;6.33;;;0.60;69.90;;;;;;5108193;27;46493;-69
2022/11/27 04:18:01;;;;;;;19.57;6.97;;;0.50;69.80;;;;;;5108400;27;46139;-71
2022/11/27 04:20:28;;;;;;;22.87;7.17;;;0.50;69.80;;;;;;5110336;27;46535;-69
2022/11/27 04:22:54;;;;;;;24.38;7.15;;;0.50;69.80;;;;;;5109133;27;46532;-71
2022/11/27 04:25:20;;;;;;;56.28;9.27;;;0.50;68.80;;;;;;5106594;27;46372;-71
2022/11/27 04:27:46;;;;;;;56.05;6.47;;;0.50;69.80;;;;;;5106492;27;47626;-70
2022/11/27 04:30:12;;;;;;;57.57;6.90;;;0.40;69.90;;;;;;5110074;27;45833;-69
2022/11/27 04:32:38;;;;;;;38.33;6.85;;;0.40;70.10;;;;;;5107511;27;46731;-68
2022/11/27 04:35:04;;;;;;;23.60;6.23;;;0.40;70.00;;;;;;5107801;27;46537;-69
2022/11/27 04:37:29;;;;;;;55.00;9.80;;;0.30;70.30;;;;;;5108328;27;47255;-69
2022/11/27 04:39:55;;;;;;;31.17;7.20;;;0.40;70.50;;;;;;5110553;27;47349;-69
2022/11/27 04:42:21;;;;;;;46.03;6.87;;;0.40;70.30;;;;;;5109754;27;46414;-69
2022/11/27 04:44:46;;;;;;;34.60;7.60;;;0.40;70.20;;;;;;5106529;27;45943;-71
2022/11/27 04:47:12;;;;;;;83.63;8.13;;;0.50;70.30;;;;;;5106508;27;46467;-71
2022/11/27 04:49:37;;;;;;;54.73;8.20;;;0.50;70.20;;;;;;5112120;27;46440;-72
2022/11/27 04:52:04;;;;;;;45.60;5.90;;;0.60;69.90;;;;;;5107895;27;46662;-71
2022/11/27 04:54:29;;;;;;;160.57;12.10;;;0.50;69.80;;;;;;5111511;27;46543;-69
2022/11/27 04:56:55;;;;;;;141.57;9.23;;;0.50;69.90;;;;;;5104721;27;46410;-69
2022/11/27 04:59:21;;;;;;;39.53;6.80;;;0.40;69.90;;;;;;5114821;27;46310;-71
2022/11/27 05:01:46;;;;;;;62.88;7.35;;;0.30;70.20;;;;;;5110109;27;46742;-70
2022/11/27 05:04:12;;;;;;;47.23;7.37;;;0.30;70.20;;;;;;5108553;27;46417;-71
2022/11/27 05:06:38;;;;;;;37.07;8.13;;;0.30;70.40;;;;;;5109936;27;48658;-71
2022/11/27 05:09:03;;;;;;;63.57;7.50;;;0.30;70.50;;;;;;5110463;27;46590;-71
2022/11/27 05:11:30;;;;;;;94.47;7.77;;;0.20;70.60;;;;;;5110752;27;46525;-70
2022/11/27 05:14:15;;;;;;;73.07;7.03;;;0.20;70.90;;;;;;5110766;27;46442;-71
2022/11/27 05:16:42;;;;;;;35.85;5.68;;;0.20;70.90;;;;;;5106891;27;47589;-70
2022/11/27 05:19:09;;;;;;;89.07;7.05;;;0.30;71.10;;;;;;5111611;27;46456;-71
2022/11/27 05:21:35;;;;;;;54.38;6.95;;;0.10;71.20;;;;;;5108211;27;46509;-71
2022/11/27 05:24:01;;;;;;;54.97;6.85;;;0.00;71.60;;;;;;5109154;27;46360;-69
2022/11/27 05:26:27;;;;;;;27.47;6.63;;;0.00;71.60;;;;;;5109237;27;47055;-71
2022/11/27 05:28:52;;;;;;;38.77;6.37;;;0.00;71.80;;;;;;5108562;27;46238;-70
2022/11/27 05:31:18;;;;;;;91.60;11.23;;;0.00;71.80;;;;;;5110369;27;46449;-71
2022/11/27 05:33:43;;;;;;;29.03;5.37;;;-0.10;72.10;;;;;;5108780;27;46577;-69
2022/11/27 05:36:09;;;;;;;14.27;5.60;;;-0.20;72.30;;;;;;5107979;27;49168;-72
2022/11/27 05:38:35;;;;;;;19.30;7.50;;;-0.30;72.50;;;;;;5109235;27;46473;-70
2022/11/27 05:41:01;;;;;;;20.45;6.47;;;-0.30;72.80;;;;;;5111230;27;46687;-71
2022/11/27 05:43:26;;;;;;;23.80;7.60;;;-0.30;72.70;;;;;;5106310;27;46385;-70
2022/11/27 05:45:52;;;;;;;32.57;9.23;;;-0.40;72.60;;;;;;5102609;27;46658;-70
2022/11/27 05:48:17;;;;;;;17.30;6.50;;;-0.20;72.70;;;;;;5105609;27;46401;-71
2022/11/27 05:50:43;;;;;;;21.93;7.20;;;-0.10;72.40;;;;;;5107357;27;46665;-70
2022/11/27 05:53:08;;;;;;;55.37;14.63;;;-0.20;72.50;;;;;;5108776;27;46425;-69
2022/11/27 05:55:34;;;;;;;33.27;14.47;;;-0.10;72.50;;;;;;5107316;27;46479;-68
2022/11/27 05:58:00;;;;;;;34.93;13.10;;;0.00;72.50;;;;;;5101139;27;45867;-69
2022/11/27 06:00:26;;;;;;;32.07;13.97;;;0.00;72.30;;;;;;5102998;27;46439;-69
2022/11/27 06:02:52;;;;;;;23.37;11.90;;;0.10;72.30;;;;;;5105149;27;46440;-70
2022/11/27 06:05:17;;;;;;;22.13;9.77;;;0.10;71.40;;;;;;5104810;27;46315;-71
2022/11/27 06:07:43;;;;;;;16.37;8.23;;;0.10;72.40;;;;;;5107089;27;46415;-69
2022/11/27 06:10:09;;;;;;;17.33;8.90;;;0.00;72.40;;;;;;5104606;27;46438;-69
2022/11/27 06:12:34;;;;;;;23.93;11.40;;;0.00;72.50;;;;;;5107120;27;46548;-68
2022/11/27 06:15:00;;;;;;;18.90;9.90;;;-0.10;72.50;;;;;;5106091;27;46437;-70
2022/11/27 06:17:26;;;;;;;24.63;10.70;;;-0.20;72.70;;;;;;5102995;27;46506;-71
2022/11/27 06:19:51;;;;;;;17.80;9.10;;;-0.10;72.90;;;;;;5104744;27;46515;-69
2022/11/27 06:22:17;;;;;;;20.50;9.70;;;-0.20;72.90;;;;;;5102431;27;46828;-71
2022/11/27 06:24:42;;;;;;;19.57;9.50;;;-0.30;72.90;;;;;;5102946;27;46497;-71
2022/11/27 06:27:08;;;;;;;22.23;12.17;;;-0.30;73.00;;;;;;5101652;27;46426;-72
2022/11/27 06:29:35;;;;;;;22.77;11.57;;;-0.40;73.20;;;;;;5100974;27;46454;-70
2022/11/27 06:32:01;;;;;;;24.85;11.95;;;-0.50;73.10;;;;;;5102733;27;46498;-70
2022/11/27 06:34:26;;;;;;;24.67;12.30;;;-0.40;73.30;;;;;;5103214;27;47660;-69
2022/11/27 06:36:52;;;;;;;20.80;10.00;;;-0.40;73.10;;;;;;5100554;27;45857;-71
2022/11/27 06:39:18;;;;;;;9.80;6.13;;;-0.30;73.10;;;;;;5105201;27;46712;-69
2022/11/27 06:41:43;;;;;;;11.67;7.23;;;-0.40;72.80;;;;;;5104288;27;46464;-73
2022/11/27 06:44:09;;;;;;;11.63;5.83;;;-0.60;73.00;;;;;;5101830;27;46646;-73
2022/11/27 06:46:35;;;;;;;14.15;6.93;;;-0.50;73.30;;;;;;5139313;27;46791;-72
2022/11/27 06:49:01;;;;;;;13.50;7.38;;;-0.70;73.20;;;;;;5102629;27;46434;-72
2022/11/27 06:51:30;;;;;;;12.90;7.80;;;-0.70;73.10;;;;;;5107146;27;46618;-71
2022/11/27 06:53:57;;;;;;;10.55;6.55;;;-0.70;73.10;;;;;;5101164;27;46405;-75
2022/11/27 06:56:25;;;;;;;15.70;6.78;;;-0.50;73.30;;;;;;5102824;27;46588;-73
2022/11/27 06:58:58;;;;;;;9.65;5.90;;;-0.70;73.00;;;;;;5100656;27;46710;-71
2022/11/27 07:01:28;;;;;;;11.23;6.07;;;-0.60;73.10;;;;;;5106127;27;46537;-71
2022/11/27 07:03:55;;;;;;;12.45;6.80;;;-0.60;72.90;;;;;;5103208;27;46583;-71
2022/11/27 07:06:23;;;;;;;12.30;7.10;;;-0.50;71.90;;;;;;5099361;27;46615;-74
2022/11/27 07:08:49;;;;;;;10.20;5.50;;;-0.50;72.80;;;;;;5101228;27;45962;-71
2022/11/27 07:11:20;;;;;;;14.48;7.80;;;-0.50;72.60;;;;;;5102191;27;46486;-69
2022/11/27 07:13:47;;;;;;;17.27;8.88;;;-0.40;72.60;;;;;;5102939;27;46571;-69
2022/11/27 07:16:13;;;;;;;23.13;10.05;;;-0.40;72.50;;;;;;5101664;27;46944;-70
2022/11/27 07:18:43;;;;;;;51.25;21.50;;;-0.40;72.60;;;;;;5100664;27;46552;-70
2022/11/27 07:21:09;;;;;;;60.58;26.48;;;-0.50;72.50;;;;;;5104118;27;46943;-71
2022/11/27 07:23:36;;;;;;;70.95;32.28;;;-0.40;72.50;;;;;;5102470;27;49081;-67
2022/11/27 07:26:06;;;;;;;53.20;23.40;;;-0.30;72.30;;;;;;5107948;27;46082;-65
2022/11/27 07:28:32;;;;;;;42.88;18.80;;;-0.20;72.40;;;;;;5105609;27;46456;-65
2022/11/27 07:30:58;;;;;;;27.20;14.47;;;-0.20;72.20;;;;;;5109932;27;46477;-66
2022/11/27 07:33:24;;;;;;;18.52;10.30;;;-0.20;72.40;;;;;;5109034;27;47331;-66
2022/11/27 07:36:00;;;;;;;19.45;10.75;;;-0.10;72.30;;;;;;5108221;27;46681;-66
2022/11/27 07:38:26;;;;;;;15.13;9.68;;;-0.10;72.20;;;;;;5102822;27;46487;-66
2022/11/27 07:40:52;;;;;;;10.30;7.30;;;0.00;72.00;;;;;;5106873;27;46515;-66
2022/11/27 07:43:17;;;;;;;13.00;7.70;;;0.10;71.90;;;;;;5108349;27;46413;-67
2022/11/27 07:45:43;;;;;;;14.97;9.17;;;0.00;71.90;;;;;;5108922;27;46425;-66
2022/11/27 07:48:08;;;;;;;13.17;8.40;;;0.20;71.90;;;;;;5107020;27;46447;-65
2022/11/27 07:50:34;;;;;;;13.30;8.10;;;0.40;71.70;;;;;;5111025;27;46209;-63
2022/11/27 07:53:00;;;;;;;12.50;8.10;;;0.50;71.50;;;;;;5106860;27;46587;-65
2022/11/27 07:55:25;;;;;;;13.33;8.37;;;0.60;71.40;;;;;;5103697;27;46696;-67
2022/11/27 07:57:51;;;;;;;15.50;8.47;;;0.60;71.50;;;;;;5107441;27;46495;-66
2022/11/27 08:00:17;;;;;;;13.40;8.40;;;0.60;71.50;;;;;;5113719;27;46341;-64
2022/11/27 08:02:42;;;;;;;11.98;7.38;;;0.70;71.30;;;;;;5108466;27;46594;-64
2022/11/27 08:05:08;;;;;;;12.10;7.90;;;1.00;70.20;;;;;;5107908;27;46652;-64
2022/11/27 08:07:34;;;;;;;14.80;8.83;;;1.00;71.20;;;;;;5105697;27;46587;-66
2022/11/27 08:09:59;;;;;;;9.13;6.83;;;1.10;71.10;;;;;;5104844;27;46451;-66
2022/11/27 08:12:25;;;;;;;13.43;8.30;;;1.20;71.10;;;;;;5107980;27;46477;-66
2022/11/27 08:14:51;;;;;;;10.63;7.57;;;1.20;71.00;;;;;;5113830;27;46420;-63
2022/11/27 08:17:17;;;;;;;12.80;7.27;;;1.30;70.80;;;;;;5106255;27;46359;-64
2022/11/27 08:19:42;;;;;;;11.33;7.67;;;1.30;70.80;;;;;;5110707;27;46528;-66
2022/11/27 08:22:16;;;;;;;11.57;8.23;;;1.30;70.60;;;;;;5109677;27;47913;-67
2022/11/27 08:24:41;;;;;;;11.82;7.85;;;1.20;72.00;;;;;;5108711;27;46259;-64
2022/11/27 08:27:10;;;;;;;13.60;8.63;;;1.20;71.20;;;;;;5103888;27;46479;-66
2022/11/27 08:29:37;;;;;;;13.15;8.02;;;1.20;72.40;;;;;;5106235;27;46536;-64
2022/11/27 08:32:03;;;;;;;11.05;7.18;;;1.20;72.40;;;;;;5108906;27;46509;-64
2022/11/27 08:34:29;;;;;;;11.68;6.57;;;1.30;72.30;;;;;;5105445;27;46456;-63
2022/11/27 08:36:54;;;;;;;20.50;8.97;;;1.30;73.20;;;;;;5102753;27;46616;-65
2022/11/27 08:39:20;;;;;;;29.10;13.90;;;1.50;72.80;;;;;;5103421;27;46513;-62
2022/11/27 08:41:46;;;;;;;41.43;17.40;;;1.60;71.20;;;;;;5106494;27;46633;-63
2022/11/27 08:44:11;;;;;;;134.17;50.07;;;1.70;70.80;;;;;;5104243;27;46231;-65
2022/11/27 08:46:37;;;;;;;21.20;11.13;;;1.70;70.80;;;;;;5106865;27;46485;-64
2022/11/27 08:49:03;;;;;;;90.23;36.47;;;1.70;70.80;;;;;;5101881;27;46384;-62
2022/11/27 08:51:28;;;;;;;18.63;10.73;;;1.70;70.80;;;;;;5105239;27;46588;-63
2022/11/27 08:53:54;;;;;;;41.07;10.37;;;1.80;70.90;;;;;;5105458;27;47118;-66
2022/11/27 08:56:21;;;;;;;27.87;11.40;;;1.90;71.00;;;;;;5107897;27;46375;-65
2022/11/27 08:58:47;;;;;;;23.05;10.98;;;2.00;71.10;;;;;;5105151;27;46445;-65
2022/11/27 09:01:16;;;;;;;31.63;15.82;;;2.10;70.00;;;;;;5105106;27;46468;-67
2022/11/27 09:03:42;;;;;;;40.22;17.65;;;2.10;69.50;;;;;;5105113;27;46396;-63
2022/11/27 09:06:11;;;;;;;30.38;17.50;;;2.10;70.50;;;;;;5105214;27;46526;-65
2022/11/27 09:08:40;;;;;;;27.25;11.35;;;1.90;71.00;;;;;;5107459;27;45942;-64
2022/11/27 09:11:07;;;;;;;16.45;6.28;;;1.90;71.00;;;;;;5105121;27;46500;-64
2022/11/27 09:13:38;;;;;;;22.40;11.82;;;1.90;71.10;;;;;;5104388;27;46622;-64
2022/11/27 09:16:05;;;;;;;20.08;7.47;;;1.90;71.00;;;;;;5098673;27;46337;-65
2022/11/27 09:18:30;;;;;;;50.42;7.50;;;1.90;71.00;;;;;;5140204;27;46702;-64
2022/11/27 09:20:58;;;;;;;26.37;6.60;;;1.90;71.00;;;;;;5106731;27;46434;-64
2022/11/27 09:23:24;;;;;;;91.15;9.70;;;2.00;71.10;;;;;;5104543;27;46812;-64
2022/11/27 09:25:50;;;;;;;31.98;5.13;;;2.20;70.90;;;;;;5104002;27;46430;-65
2022/11/27 09:28:15;;;;;;;21.60;6.30;;;2.10;71.10;;;;;;5106378;27;46680;-64
2022/11/27 09:30:41;;;;;;;30.53;5.57;;;2.10;71.10;;;;;;5102548;27;49088;-64
2022/11/27 09:33:07;;;;;;;62.63;5.03;;;2.20;71.20;;;;;;5105103;27;46432;-64
2022/11/27 09:35:32;;;;;;;74.30;6.50;;;2.30;70.30;;;;;;5101059;27;46511;-64
2022/11/27 09:37:58;;;;;;;90.73;5.57;;;2.20;70.40;;;;;;5105529;27;46448;-64
2022/11/27 09:40:24;;;;;;;39.37;4.60;;;2.20;70.20;;;;;;5104258;27;46484;-64
2022/11/27 09:42:56;;;;;;;34.87;5.87;;;2.00;71.10;;;;;;5103235;27;46445;-64
2022/11/27 09:45:23;;;;;;;23.88;5.88;;;1.90;70.00;;;;;;5106525;27;46531;-66
2022/11/27 09:48:01;;;;;;;16.98;6.28;;;1.90;71.00;;;;;;5103605;27;46810;-66
2022/11/27 09:50:31;;;;;;;17.77;5.10;;;2.10;72.30;;;;;;5104696;27;46739;-64
2022/11/27 09:53:02;;;;;;;10.10;4.68;;;2.20;71.20;;;;;;5103461;27;46456;-65
2022/11/27 09:55:46;;;;;;;16.30;5.45;;;2.30;71.30;;;;;;5103992;27;46436;-64
2022/11/27 09:58:37;;;;;;;17.27;5.10;;;2.50;70.70;;;;;;5104800;27;46282;-64
2022/11/27 10:01:17;;;;;;;15.13;4.95;;;2.60;70.60;;;;;;5104621;27;46635;-64
2022/11/27 10:03:44;;;;;;;15.25;5.53;;;2.70;70.70;;;;;;5107983;27;46343;-63
2022/11/27 10:06:23;;;;;;;12.98;6.57;;;3.00;68.70;;;;;;5101506;27;46392;-63
2022/11/27 10:09:20;;;;;;;49.83;8.85;;;3.10;69.50;;;;;;5109417;27;45869;-64
2022/11/27 10:12:05;;;;;;;75.47;9.10;;;3.30;69.10;;;;;;5072755;27;46321;-62
2022/11/27 10:14:45;;;;;;;103.50;9.55;;;3.30;69.10;;;;;;5099981;27;46440;-63
2022/11/27 10:17:15;;;;;;;96.72;12.20;;;3.40;68.00;;;;;;5095919;27;46459;-63
2022/11/27 10:19:41;;;;;;;73.13;9.23;;;3.50;68.70;;;;;;5100098;27;45911;-64
2022/11/27 10:22:22;;;;;;;217.23;10.33;;;3.70;68.30;;;;;;5104701;27;46540;-63
2022/11/27 10:25:07;;;;;;;118.63;9.82;;;3.70;68.30;;;;;;5104962;27;46511;-62
2022/11/27 10:27:58;;;;;;;145.32;11.75;;;3.60;69.00;;;;;;5102863;27;46453;-64
2022/11/27 10:30:25;;;;;;;175.00;12.20;;;3.60;69.20;;;;;;5109192;27;46370;-63
2022/11/27 10:32:55;;;;;;;179.85;11.73;;;3.80;68.60;;;;;;5103989;27;46507;-63
2022/11/27 10:35:23;;;;;;;151.85;15.50;;;4.00;67.40;;;;;;5103735;27;46647;-64
2022/11/27 10:38:11;;;;;;;126.72;15.18;;;4.00;68.40;;;;;;5100760;27;45895;-64
2022/11/27 10:40:58;;;;;;;53.97;11.10;;;4.30;67.80;;;;;;5103258;27;46880;-64
2022/11/27 10:43:24;;;;;;;23.88;8.40;;;4.50;67.50;;;;;;5104187;27;46517;-63
2022/11/27 10:46:11;;;;;;;89.57;8.23;;;4.70;67.10;;;;;;5104298;27;46359;-64
2022/11/27 10:48:37;;;;;;;36.45;7.90;;;4.70;66.60;;;;;;5100541;27;46622;-64
2022/11/27 10:51:02;;;;;;;9.00;6.40;;;4.50;67.10;;;;;;5102211;27;46768;-63
2022/11/27 10:53:30;;;;;;;31.80;6.83;;;4.70;67.00;;;;;;5097076;27;47496;-64
2022/11/27 10:56:10;;;;;;;7.22;5.35;;;4.40;66.70;;;;;;5115881;27;46703;-63
2022/11/27 10:58:58;;;;;;;8.55;5.55;;;4.40;68.10;;;;;;5100169;27;46811;-64
2022/11/27 11:01:26;;;;;;;8.43;4.90;;;4.40;68.20;;;;;;5104877;27;46301;-68
2022/11/27 11:04:06;;;;;;;7.93;5.37;;;4.70;68.00;;;;;;5104117;27;47502;-65
2022/11/27 11:06:38;;;;;;;6.85;5.25;;;4.70;67.80;;;;;;5098796;27;46334;-64
2022/11/27 11:09:13;;;;;;;7.10;5.40;;;4.80;68.00;;;;;;5101450;27;46465;-64
2022/11/27 11:11:38;;;;;;;8.13;5.87;;;4.80;67.90;;;;;;5104740;27;46392;-63
2022/11/27 11:14:24;;;;;;;9.53;5.80;;;4.90;67.80;;;;;;5099437;27;47640;-65
2022/11/27 11:16:51;;;;;;;13.80;7.53;;;5.00;66.20;;;;;;5101874;27;46556;-64
2022/11/27 11:19:32;;;;;;;8.60;6.70;;;5.00;68.70;;;;;;5101707;27;46387;-63
2022/11/27 11:21:59;;;;;;;10.57;6.70;;;5.00;67.20;;;;;;5100573;27;46493;-63
2022/11/27 11:24:34;;;;;;;15.00;8.27;;;4.90;67.60;;;;;;5097404;27;47698;-63
2022/11/27 11:27:20;;;;;;;11.27;6.00;;;4.80;66.90;;;;;;5101593;27;45990;-65
2022/11/27 11:29:47;;;;;;;12.60;6.53;;;4.90;67.90;;;;;;5100761;27;46394;-64
2022/11/27 11:32:27;;;;;;;19.53;7.63;;;4.90;67.90;;;;;;5106186;27;46286;-63
2022/11/27 11:34:55;;;;;;;12.60;7.90;;;4.90;67.80;;;;;;5103328;27;46544;-63
2022/11/27 11:37:28;;;;;;;18.63;8.43;;;4.80;68.00;;;;;;5104413;27;46452;-62
2022/11/27 11:40:05;;;;;;;31.75;10.70;;;4.80;68.20;;;;;;5099829;27;46345;-63
2022/11/27 11:42:33;;;;;;;65.07;9.50;;;4.80;68.00;;;;;;5104152;27;46433;-63
2022/11/27 11:45:16;;;;;;;38.70;9.03;;;4.80;68.10;;;;;;5100295;27;46353;-65
2022/11/27 11:47:50;;;;;;;46.38;10.18;;;4.60;68.40;;;;;;5100533;27;46452;-64
2022/11/27 11:50:41;;;;;;;21.25;10.40;;;4.70;68.30;;;;;;5102966;27;46734;-64
2022/11/27 11:53:14;;;;;;;128.20;12.83;;;4.70;67.90;;;;;;5101718;27;45989;-63
2022/11/27 11:56:28;;;;;;;92.67;9.40;;;4.70;67.60;;;;;;5105556;27;47141;-65
2022/11/27 11:59:17;;;;;;;51.95;9.10;;;4.60;68.10;;;;;;5098596;27;46202;-62
2022/11/27 12:01:55;;;;;;;57.70;9.02;;;4.70;67.50;;;;;;5100885;27;46450;-65
2022/11/27 12:05:01;;;;;;;88.20;10.60;;;4.60;67.70;;;;;;5105335;27;46676;-64
2022/11/27 12:07:47;;;;;;;132.47;12.60;;;4.40;68.40;;;;;;5097890;27;46568;-65
2022/11/27 12:10:26;;;;;;;61.65;10.13;;;4.20;68.90;;;;;;5106823;27;46380;-64
2022/11/27 12:13:19;;;;;;;107.03;12.87;;;4.40;68.90;;;;;;5108274;27;46548;-62
2022/11/27 12:16:00;;;;;;;168.53;15.10;;;4.60;68.00;;;;;;5104228;27;46697;-62
2022/11/27 12:18:43;;;;;;;76.03;10.90;;;4.60;67.70;;;;;;5102563;27;46464;-62
2022/11/27 12:21:15;;;;;;;98.43;9.73;;;4.40;68.30;;;;;;5104131;27;46810;-64
2022/11/27 12:23:52;;;;;;;76.47;9.30;;;4.20;68.80;;;;;;5109773;27;46395;-64
2022/11/27 12:26:44;;;;;;;67.03;11.10;;;4.20;69.20;;;;;;5105768;27;46506;-63
2022/11/27 12:29:16;;;;;;;42.53;9.47;;;4.10;69.20;;;;;;5086464;27;46273;-65
2022/11/27 12:32:06;;;;;;;33.20;10.85;;;4.30;69.40;;;;;;5106115;27;46655;-63
2022/11/27 12:34:37;;;;;;;48.53;11.05;;;4.30;68.80;;;;;;5105552;27;45939;-63
2022/11/27 12:37:35;;;;;;;60.27;10.43;;;4.50;68.20;;;;;;5103635;27;46672;-63
2022/11/27 12:40:34;;;;;;;39.80;9.10;;;4.50;68.10;;;;;;5104759;27;46558;-65
2022/11/27 12:43:23;;;;;;;15.32;9.43;;;4.50;68.60;;;;;;5103217;27;46374;-65
2022/11/27 12:45:52;;;;;;;17.08;8.02;;;4.60;67.90;;;;;;5096248;27;46494;-64
2022/11/27 12:48:22;;;;;;;24.40;10.10;;;4.60;67.90;;;;;;5103949;27;46421;-63
2022/11/27 12:50:54;;;;;;;23.27;9.60;;;4.50;68.20;;;;;;5104074;27;46377;-67
2022/11/27 12:53:29;;;;;;;33.28;9.30;;;4.50;68.10;;;;;;5105892;27;46513;-64
2022/11/27 12:56:15;;;;;;;16.42;9.60;;;4.50;68.20;;;;;;5098359;27;46357;-62
2022/11/27 12:58:47;;;;;;;99.90;12.90;;;4.50;68.40;;;;;;5106490;27;46462;-64
2022/11/27 13:01:21;;;;;;;95.20;12.23;;;4.40;68.60;;;;;;5107880;27;47246;-64